Time,TemperatureF,DewpointF,PressureIn,WindDirection,WindDirectionDegrees,WindSpeedMPH,WindSpeedGustMPH,Humidity,HourlyPrecipIn,Conditions,Clouds,dailyrainin,SoftwareType,DateUTC
2013-03-11 00:00:00,23.8,18.5,30.33,West,275,2.0,2.0,80,0.00,,,0.14,Wunderground v.1.15,2013-03-11 06:00:00,
2013-03-11 00:05:00,24.2,18.0,30.32,NW,306,0.0,4.0,77,0.00,,,0.00,Wunderground v.1.15,2013-03-11 06:05:00,
2013-03-11 00:10:00,24.6,17.5,30.32,NW,306,1.0,2.0,74,0.00,,,0.00,Wunderground v.1.15,2013-03-11 06:10:00,
2013-03-11 00:15:00,24.9,17.1,30.32,NW,311,4.0,5.0,72,0.00,,,0.00,Wunderground v.1.15,2013-03-11 06:15:00,
2013-03-11 00:20:00,24.9,16.8,30.32,NW,311,3.0,3.0,71,0.00,,,0.00,Wunderground v.1.15,2013-03-11 06:20:00,
2013-03-11 00:25:00,25.1,16.7,30.32,NW,311,2.0,3.0,70,0.00,,,0.00,Wunderground v.1.15,2013-03-11 06:25:00,
2013-03-11 00:30:00,25.4,16.6,30.32,NW,310,2.0,2.0,69,0.00,,,0.00,Wunderground v.1.15,2013-03-11 06:30:00,
2013-03-11 00:35:00,25.4,16.6,30.32,NW,310,3.0,3.0,69,0.00,,,0.00,Wunderground v.1.15,2013-03-11 06:35:00,
2013-03-11 00:40:00,25.3,16.5,30.32,NW,310,2.0,2.0,69,0.00,,,0.00,Wunderground v.1.15,2013-03-11 06:40:00,
2013-03-11 00:45:00,25.2,17.1,30.32,NW,311,1.0,2.0,71,0.00,,,0.00,Wunderground v.1.15,2013-03-11 06:45:00,
2013-03-11 00:50:00,24.7,17.0,30.32,NW,311,0.0,1.0,72,0.00,,,0.00,Wunderground v.1.15,2013-03-11 06:50:00,
2013-03-11 00:55:00,24.4,16.3,30.32,NW,310,0.0,2.0,71,0.00,,,0.00,Wunderground v.1.15,2013-03-11 06:55:00,
2013-03-11 01:00:00,24.5,16.1,30.31,NW,310,0.0,1.0,70,0.00,,,0.00,Wunderground v.1.15,2013-03-11 07:00:00,
2013-03-11 01:05:00,24.6,16.2,30.32,NW,311,0.0,2.0,70,0.00,,,0.00,Wunderground v.1.15,2013-03-11 07:05:00,
2013-03-11 01:10:00,24.5,16.1,30.32,NW,311,1.0,1.0,70,0.00,,,0.00,Wunderground v.1.15,2013-03-11 07:10:00,
2013-03-11 01:15:00,24.6,16.5,30.32,NW,311,1.0,2.0,71,0.00,,,0.00,Wunderground v.1.15,2013-03-11 07:15:00,
2013-03-11 01:20:00,24.4,16.7,30.32,NW,310,0.0,1.0,72,0.00,,,0.00,Wunderground v.1.15,2013-03-11 07:20:00,
2013-03-11 01:25:00,24.1,16.7,30.31,NW,311,0.0,1.0,73,0.00,,,0.00,Wunderground v.1.15,2013-03-11 07:25:00,
2013-03-11 01:30:00,23.8,16.4,30.32,NW,311,1.0,1.0,73,0.00,,,0.00,Wunderground v.1.15,2013-03-11 07:30:00,
2013-03-11 01:35:00,22.5,15.5,30.32,South,179,5.0,8.0,74,0.00,,,0.00,Wunderground v.1.15,2013-03-11 07:35:00,
2013-03-11 01:40:00,21.1,14.7,30.33,South,184,4.0,4.0,76,0.00,,,0.00,Wunderground v.1.15,2013-03-11 07:40:00,
2013-03-11 01:45:00,20.3,14.2,30.33,SSW,194,2.0,5.0,77,0.00,,,0.00,Wunderground v.1.15,2013-03-11 07:45:00,
2013-03-11 01:50:00,20.3,14.8,30.33,SSW,194,0.0,2.0,79,0.00,,,0.00,Wunderground v.1.15,2013-03-11 07:50:00,
2013-03-11 01:55:00,20.3,15.1,30.33,SSW,194,0.0,2.0,80,0.00,,,0.00,Wunderground v.1.15,2013-03-11 07:55:00,
2013-03-11 02:00:00,20.7,15.5,30.32,SSW,194,1.0,2.0,80,0.00,,,0.00,Wunderground v.1.15,2013-03-11 08:00:00,
2013-03-11 02:05:00,20.9,15.4,30.33,SSW,194,1.0,2.0,79,0.00,,,0.00,Wunderground v.1.15,2013-03-11 08:05:00,
2013-03-11 02:10:00,21.1,15.9,30.32,South,190,1.0,1.0,80,0.00,,,0.00,Wunderground v.1.15,2013-03-11 08:10:00,
2013-03-11 02:15:00,21.1,15.9,30.32,South,190,0.0,2.0,80,0.00,,,0.00,Wunderground v.1.15,2013-03-11 08:15:00,
2013-03-11 02:20:00,20.9,15.4,30.32,South,190,2.0,2.0,79,0.00,,,0.00,Wunderground v.1.15,2013-03-11 08:20:00,
2013-03-11 02:25:00,20.6,15.4,30.32,SSE,164,2.0,3.0,80,0.00,,,0.00,Wunderground v.1.15,2013-03-11 08:25:00,
2013-03-11 02:30:00,20.7,15.8,30.33,SSE,165,2.0,2.0,81,0.00,,,0.00,Wunderground v.1.15,2013-03-11 08:30:00,
2013-03-11 02:35:00,20.6,15.7,30.33,SSE,165,3.0,3.0,81,0.00,,,0.00,Wunderground v.1.15,2013-03-11 08:35:00,
2013-03-11 02:40:00,20.7,15.8,30.33,East,95,0.0,3.0,81,0.00,,,0.00,Wunderground v.1.15,2013-03-11 08:40:00,
2013-03-11 02:45:00,20.7,15.8,30.33,East,95,0.0,3.0,81,0.00,,,0.00,Wunderground v.1.15,2013-03-11 08:45:00,
2013-03-11 02:50:00,20.6,15.4,30.32,East,95,1.0,2.0,80,0.00,,,0.00,Wunderground v.1.15,2013-03-11 08:50:00,
2013-03-11 02:55:00,20.8,15.6,30.32,East,95,0.0,2.0,80,0.00,,,0.00,Wunderground v.1.15,2013-03-11 08:55:00,
2013-03-11 03:00:00,20.9,15.4,30.32,East,95,0.0,1.0,79,0.00,,,0.00,Wunderground v.1.15,2013-03-11 09:00:00,
2013-03-11 03:05:00,21.1,15.6,30.32,East,95,0.0,1.0,79,0.00,,,0.00,Wunderground v.1.15,2013-03-11 09:05:00,
2013-03-11 03:10:00,20.7,14.9,30.32,East,95,3.0,5.0,78,0.00,,,0.00,Wunderground v.1.15,2013-03-11 09:10:00,
2013-03-11 03:15:00,20.4,14.9,30.33,East,95,2.0,5.0,79,0.00,,,0.00,Wunderground v.1.15,2013-03-11 09:15:00,
2013-03-11 03:20:00,20.6,15.1,30.32,East,95,2.0,3.0,79,0.00,,,0.00,Wunderground v.1.15,2013-03-11 09:20:00,
2013-03-11 03:25:00,20.1,14.3,30.32,East,96,3.0,5.0,78,0.00,,,0.00,Wunderground v.1.15,2013-03-11 09:25:00,
2013-03-11 03:30:00,20.1,14.3,30.32,East,96,0.0,2.0,78,0.00,,,0.00,Wunderground v.1.15,2013-03-11 09:30:00,
2013-03-11 03:35:00,20.0,14.2,30.32,East,96,2.0,3.0,78,0.00,,,0.00,Wunderground v.1.15,2013-03-11 09:35:00,
2013-03-11 03:40:00,19.7,14.0,30.32,East,96,2.0,3.0,78,0.00,,,0.00,Wunderground v.1.15,2013-03-11 09:40:00,
2013-03-11 03:45:00,19.8,14.0,30.31,East,96,3.0,3.0,78,0.00,,,0.00,Wunderground v.1.15,2013-03-11 09:45:00,
2013-03-11 03:50:00,19.8,14.0,30.31,East,95,0.0,2.0,78,0.00,,,0.00,Wunderground v.1.15,2013-03-11 09:50:00,
2013-03-11 03:55:00,19.7,14.0,30.30,East,96,0.0,2.0,78,0.00,,,0.00,Wunderground v.1.15,2013-03-11 09:55:00,
2013-03-11 04:00:00,19.7,14.0,30.30,East,96,2.0,2.0,78,0.00,,,0.00,Wunderground v.1.15,2013-03-11 10:00:00,
2013-03-11 04:05:00,19.4,13.9,30.30,East,96,1.0,2.0,79,0.00,,,0.00,Wunderground v.1.15,2013-03-11 10:05:00,
2013-03-11 04:10:00,19.2,14.0,30.29,East,95,3.0,5.0,80,0.00,,,0.00,Wunderground v.1.15,2013-03-11 10:10:00,
2013-03-11 04:15:00,19.0,14.1,30.29,East,96,5.0,5.0,81,0.00,,,0.00,Wunderground v.1.15,2013-03-11 10:15:00,
2013-03-11 04:20:00,18.8,14.2,30.29,SE,129,4.0,5.0,82,0.00,,,0.00,Wunderground v.1.15,2013-03-11 10:20:00,
2013-03-11 04:26:00,18.1,13.5,30.29,SE,144,3.0,7.0,82,0.00,,,0.00,Wunderground v.1.15,2013-03-11 10:26:00,
2013-03-11 04:31:00,17.4,12.8,30.29,SE,144,3.0,4.0,82,0.00,,,0.00,Wunderground v.1.15,2013-03-11 10:31:00,
2013-03-11 04:36:00,16.7,12.2,30.29,SE,144,3.0,4.0,82,0.00,,,0.00,Wunderground v.1.15,2013-03-11 10:36:00,
2013-03-11 04:41:00,16.5,12.0,30.28,SE,144,0.0,2.0,82,0.00,,,0.00,Wunderground v.1.15,2013-03-11 10:41:00,
2013-03-11 04:46:00,16.7,12.4,30.29,SE,144,4.0,4.0,83,0.00,,,0.00,Wunderground v.1.15,2013-03-11 10:46:00,
2013-03-11 04:51:00,16.9,12.6,30.28,SE,144,1.0,3.0,83,0.00,,,0.00,Wunderground v.1.15,2013-03-11 10:51:00,
2013-03-11 04:56:00,16.7,12.4,30.28,SE,144,0.0,3.0,83,0.00,,,0.00,Wunderground v.1.15,2013-03-11 10:56:00,
2013-03-11 05:01:00,16.8,12.8,30.28,SE,144,0.0,1.0,84,0.00,,,0.00,Wunderground v.1.15,2013-03-11 11:01:00,
2013-03-11 05:06:00,16.8,12.8,30.28,SE,144,0.0,1.0,84,0.00,,,0.00,Wunderground v.1.15,2013-03-11 11:06:00,
2013-03-11 05:11:00,17.2,13.2,30.28,SE,144,0.0,3.0,84,0.00,,,0.00,Wunderground v.1.15,2013-03-11 11:11:00,
2013-03-11 05:16:00,17.7,13.7,30.28,SE,144,2.0,3.0,84,0.00,,,0.00,Wunderground v.1.15,2013-03-11 11:16:00,
2013-03-11 05:22:00,17.8,13.8,30.28,SE,144,0.0,2.0,84,0.00,,,0.00,Wunderground v.1.15,2013-03-11 11:22:00,
2013-03-11 05:27:00,17.5,13.2,30.28,SE,145,2.0,3.0,83,0.00,,,0.00,Wunderground v.1.15,2013-03-11 11:27:00,
2013-03-11 05:32:00,17.4,13.1,30.28,SE,144,0.0,1.0,83,0.00,,,0.00,Wunderground v.1.15,2013-03-11 11:32:00,
2013-03-11 05:37:00,17.2,12.9,30.28,South,190,4.0,5.0,83,0.00,,,0.00,Wunderground v.1.15,2013-03-11 11:37:00,
2013-03-11 05:42:00,17.4,13.1,30.28,South,190,2.0,3.0,83,0.00,,,0.00,Wunderground v.1.15,2013-03-11 11:42:00,
2013-03-11 05:47:00,18.0,13.7,30.28,South,190,5.0,5.0,83,0.00,,,0.00,Wunderground v.1.15,2013-03-11 11:47:00,
2013-03-11 05:52:00,18.5,13.6,30.28,South,190,5.0,6.0,81,0.00,,,0.00,Wunderground v.1.15,2013-03-11 11:52:00,
2013-03-11 05:57:00,18.3,13.2,30.29,South,190,3.0,6.0,80,0.00,,,0.00,Wunderground v.1.15,2013-03-11 11:57:00,
2013-03-11 06:02:00,17.8,12.7,30.29,SSW,192,4.0,4.0,80,0.00,,,0.00,Wunderground v.1.15,2013-03-11 12:02:00,
2013-03-11 06:07:00,17.5,12.7,30.30,SW,232,3.0,4.0,81,0.00,,,0.00,Wunderground v.1.15,2013-03-11 12:07:00,
2013-03-11 06:12:00,17.6,13.0,30.29,SW,232,2.0,3.0,82,0.00,,,0.00,Wunderground v.1.15,2013-03-11 12:12:00,
2013-03-11 06:17:00,17.7,13.1,30.30,West,269,3.0,4.0,82,0.00,,,0.00,Wunderground v.1.15,2013-03-11 12:17:00,
2013-03-11 06:22:00,17.4,12.8,30.30,WNW,290,2.0,3.0,82,0.00,,,0.00,Wunderground v.1.15,2013-03-11 12:22:00,
2013-03-11 06:27:00,17.1,12.3,30.30,WNW,290,3.0,3.0,81,0.00,,,0.00,Wunderground v.1.15,2013-03-11 12:27:00,
2013-03-11 06:32:00,17.1,12.6,30.30,WNW,290,3.0,4.0,82,0.00,,,0.00,Wunderground v.1.15,2013-03-11 12:32:00,
2013-03-11 06:37:00,17.1,12.6,30.30,NW,313,5.0,5.0,82,0.00,,,0.00,Wunderground v.1.15,2013-03-11 12:37:00,
2013-03-11 06:42:00,17.2,12.6,30.31,NW,325,4.0,6.0,82,0.00,,,0.00,Wunderground v.1.15,2013-03-11 12:42:00,
2013-03-11 06:47:00,17.3,13.0,30.31,NW,325,4.0,6.0,83,0.00,,,0.00,Wunderground v.1.15,2013-03-11 12:47:00,
2013-03-11 06:52:00,17.2,12.6,30.31,NW,325,1.0,4.0,82,0.00,,,0.00,Wunderground v.1.15,2013-03-11 12:52:00,
2013-03-11 06:57:00,16.9,12.4,30.30,NW,325,3.0,4.0,82,0.00,,,0.00,Wunderground v.1.15,2013-03-11 12:57:00,
2013-03-11 07:02:00,16.4,11.9,30.30,NW,323,4.0,5.0,82,0.00,,,0.00,Wunderground v.1.15,2013-03-11 13:02:00,
2013-03-11 07:07:00,16.0,11.5,30.30,NW,310,5.0,5.0,82,0.00,,,0.00,Wunderground v.1.15,2013-03-11 13:07:00,
2013-03-11 07:12:00,15.8,11.6,30.30,NW,304,5.0,5.0,83,0.00,,,0.00,Wunderground v.1.15,2013-03-11 13:12:00,
2013-03-11 07:18:00,15.9,11.7,30.30,NW,304,5.0,5.0,83,0.00,,,0.00,Wunderground v.1.15,2013-03-11 13:18:00,
2013-03-11 07:22:00,16.2,12.2,30.31,WNW,299,4.0,6.0,84,0.00,,,0.00,Wunderground v.1.15,2013-03-11 13:22:00,
2013-03-11 07:27:00,16.4,12.4,30.31,WNW,297,3.0,6.0,84,0.00,,,0.00,Wunderground v.1.15,2013-03-11 13:27:00,
2013-03-11 07:33:00,16.5,12.5,30.31,WNW,296,3.0,4.0,84,0.00,,,0.00,Wunderground v.1.15,2013-03-11 13:33:00,
2013-03-11 07:38:00,16.5,12.5,30.30,WNW,296,1.0,4.0,84,0.00,,,0.00,Wunderground v.1.15,2013-03-11 13:38:00,
2013-03-11 07:43:00,16.4,12.4,30.30,WNW,297,3.0,3.0,84,0.00,,,0.00,Wunderground v.1.15,2013-03-11 13:43:00,
2013-03-11 07:47:00,16.4,12.1,30.30,WNW,297,3.0,3.0,83,0.00,,,0.00,Wunderground v.1.15,2013-03-11 13:47:00,
2013-03-11 07:52:00,16.5,12.2,30.30,WNW,297,1.0,4.0,83,0.00,,,0.00,Wunderground v.1.15,2013-03-11 13:52:00,
2013-03-11 07:57:00,16.7,12.4,30.30,WNW,296,2.0,4.0,83,0.00,,,0.00,Wunderground v.1.15,2013-03-11 13:57:00,
2013-03-11 08:03:00,17.0,13.0,30.31,WNW,297,2.0,3.0,84,0.00,,,0.00,Wunderground v.1.15,2013-03-11 14:03:00,
2013-03-11 08:08:00,17.3,13.3,30.30,WNW,296,0.0,4.0,84,0.00,,,0.00,Wunderground v.1.15,2013-03-11 14:08:00,
2013-03-11 08:12:00,17.6,13.6,30.31,WNW,296,2.0,3.0,84,0.00,,,0.00,Wunderground v.1.15,2013-03-11 14:12:00,
2013-03-11 08:17:00,18.1,14.1,30.31,WNW,296,2.0,4.0,84,0.00,,,0.00,Wunderground v.1.15,2013-03-11 14:17:00,
2013-03-11 08:23:00,18.4,14.4,30.31,WNW,297,2.0,3.0,84,0.00,,,0.00,Wunderground v.1.15,2013-03-11 14:23:00,
2013-03-11 08:28:00,18.8,14.8,30.31,WNW,297,0.0,3.0,84,0.00,,,0.00,Wunderground v.1.15,2013-03-11 14:28:00,
2013-03-11 08:33:00,19.0,15.0,30.32,WNW,297,0.0,1.0,84,0.00,,,0.00,Wunderground v.1.15,2013-03-11 14:33:00,
2013-03-11 08:38:00,19.1,15.1,30.30,WNW,297,2.0,2.0,84,0.00,,,0.00,Wunderground v.1.15,2013-03-11 14:38:00,
2013-03-11 08:43:00,19.6,15.3,30.31,WNW,296,0.0,2.0,83,0.00,,,0.00,Wunderground v.1.15,2013-03-11 14:43:00,
2013-03-11 08:48:00,19.7,15.4,30.31,WNW,297,1.0,2.0,83,0.00,,,0.00,Wunderground v.1.15,2013-03-11 14:48:00,
2013-03-11 08:53:00,19.8,15.5,30.31,WNW,296,0.0,1.0,83,0.00,,,0.00,Wunderground v.1.15,2013-03-11 14:53:00,
2013-03-11 08:58:00,20.3,16.0,30.30,WNW,297,0.0,2.0,83,0.00,,,0.00,Wunderground v.1.15,2013-03-11 14:58:00,
2013-03-11 09:03:00,20.9,16.5,30.30,WNW,297,3.0,3.0,83,0.00,,,0.00,Wunderground v.1.15,2013-03-11 15:03:00,
2013-03-11 09:08:00,21.7,17.3,30.30,WNW,297,2.0,4.0,83,0.00,,,0.00,Wunderground v.1.15,2013-03-11 15:08:00,
2013-03-11 09:13:00,22.4,17.7,30.30,WNW,296,2.0,3.0,82,0.00,,,0.00,Wunderground v.1.15,2013-03-11 15:13:00,
2013-03-11 09:18:00,23.2,18.2,30.31,WNW,297,2.0,4.0,81,0.00,,,0.00,Wunderground v.1.15,2013-03-11 15:18:00,
2013-03-11 09:23:00,23.9,18.6,30.30,WNW,297,3.0,3.0,80,0.00,,,0.00,Wunderground v.1.15,2013-03-11 15:23:00,
2013-03-11 09:28:00,24.4,18.5,30.31,WNW,297,0.0,3.0,78,0.00,,,0.00,Wunderground v.1.15,2013-03-11 15:28:00,
2013-03-11 09:33:00,24.7,18.2,30.31,WNW,296,0.0,2.0,76,0.00,,,0.00,Wunderground v.1.15,2013-03-11 15:33:00,
2013-03-11 09:38:00,25.2,18.4,30.31,WNW,297,1.0,2.0,75,0.00,,,0.00,Wunderground v.1.15,2013-03-11 15:38:00,
2013-03-11 09:43:00,25.8,18.7,30.31,WNW,297,0.0,2.0,74,0.00,,,0.00,Wunderground v.1.15,2013-03-11 15:43:00,
2013-03-11 09:48:00,26.3,18.8,30.31,WNW,291,3.0,4.0,73,0.00,,,0.00,Wunderground v.1.15,2013-03-11 15:48:00,
2013-03-11 09:53:00,26.8,19.6,30.31,WNW,284,1.0,3.0,74,0.00,,,0.00,Wunderground v.1.15,2013-03-11 15:53:00,
2013-03-11 09:58:00,27.5,19.7,30.31,SSW,198,3.0,3.0,72,0.00,,,0.00,Wunderground v.1.15,2013-03-11 15:58:00,
2013-03-11 10:03:00,28.1,20.2,30.31,SSW,196,1.0,4.0,72,0.00,,,0.00,Wunderground v.1.15,2013-03-11 16:03:00,
2013-03-11 10:08:00,28.7,20.5,30.31,South,169,1.0,4.0,71,0.00,,,0.00,Wunderground v.1.15,2013-03-11 16:08:00,
2013-03-11 10:13:00,29.0,20.4,30.30,SSE,161,1.0,4.0,70,0.00,,,0.00,Wunderground v.1.15,2013-03-11 16:13:00,
2013-03-11 10:18:00,29.3,21.1,30.30,SSE,161,2.0,4.0,71,0.00,,,0.00,Wunderground v.1.15,2013-03-11 16:18:00,
2013-03-11 10:23:00,29.4,20.1,30.30,SE,136,4.0,5.0,68,0.00,,,0.00,Wunderground v.1.15,2013-03-11 16:23:00,
2013-03-11 10:28:00,29.5,19.9,30.29,SE,142,3.0,5.0,67,0.00,,,0.00,Wunderground v.1.15,2013-03-11 16:28:00,
2013-03-11 10:33:00,29.7,20.4,30.28,SE,139,4.0,6.0,68,0.00,,,0.00,Wunderground v.1.15,2013-03-11 16:33:00,
2013-03-11 10:38:00,30.0,21.1,30.28,SE,139,5.0,7.0,69,0.00,,,0.00,Wunderground v.1.15,2013-03-11 16:38:00,
2013-03-11 10:43:00,30.5,21.5,30.28,SE,141,4.0,7.0,69,0.00,,,0.00,Wunderground v.1.15,2013-03-11 16:43:00,
2013-03-11 10:48:00,30.9,21.9,30.27,SE,146,4.0,7.0,69,0.00,,,0.00,Wunderground v.1.15,2013-03-11 16:48:00,
2013-03-11 10:53:00,31.3,22.0,30.27,SE,144,2.0,6.0,68,0.00,,,0.00,Wunderground v.1.15,2013-03-11 16:53:00,
2013-03-11 10:58:00,31.7,23.0,30.27,SE,142,4.0,8.0,70,0.00,,,0.00,Wunderground v.1.15,2013-03-11 16:58:00,
2013-03-11 11:03:00,32.1,22.7,30.26,SE,144,9.0,10.0,68,0.00,,,0.00,Wunderground v.1.15,2013-03-11 17:03:00,
2013-03-11 11:08:00,32.5,22.4,30.26,SSE,150,8.0,12.0,66,0.00,,,0.00,Wunderground v.1.15,2013-03-11 17:08:00,
2013-03-11 11:13:00,32.9,22.4,30.26,SE,142,10.0,13.0,65,0.00,,,0.00,Wunderground v.1.15,2013-03-11 17:13:00,
2013-03-11 11:18:00,33.4,23.3,30.26,SE,145,10.0,14.0,66,0.00,,,0.00,Wunderground v.1.15,2013-03-11 17:18:00,
2013-03-11 11:23:00,33.8,23.6,30.26,SSE,147,11.0,15.0,66,0.00,,,0.00,Wunderground v.1.15,2013-03-11 17:23:00,
2013-03-11 11:28:00,34.1,22.8,30.26,SSE,150,4.0,15.0,63,0.00,,,0.00,Wunderground v.1.15,2013-03-11 17:28:00,
2013-03-11 11:33:00,34.3,23.4,30.26,SE,145,7.0,10.0,64,0.00,,,0.00,Wunderground v.1.15,2013-03-11 17:33:00,
2013-03-11 11:38:00,34.4,22.7,30.26,SE,143,3.0,12.0,62,0.00,,,0.00,Wunderground v.1.15,2013-03-11 17:38:00,
2013-03-11 11:43:00,34.4,23.1,30.26,SSE,149,4.0,10.0,63,0.00,,,0.00,Wunderground v.1.15,2013-03-11 17:43:00,
2013-03-11 11:48:00,34.8,23.1,30.26,SE,145,4.0,10.0,62,0.00,,,0.00,Wunderground v.1.15,2013-03-11 17:48:00,
2013-03-11 11:53:00,35.1,23.4,30.26,SE,138,5.0,8.0,62,0.00,,,0.00,Wunderground v.1.15,2013-03-11 17:53:00,
2013-03-11 11:58:00,35.3,23.2,30.25,SSE,150,5.0,10.0,61,0.00,,,0.00,Wunderground v.1.15,2013-03-11 17:58:00,
2013-03-11 12:03:00,35.5,23.4,30.24,SSE,162,5.0,8.0,61,0.00,,,0.00,Wunderground v.1.15,2013-03-11 18:03:00,
2013-03-11 12:08:00,35.6,23.5,30.24,SSE,155,4.0,13.0,61,0.00,,,0.00,Wunderground v.1.15,2013-03-11 18:08:00,
2013-03-11 12:13:00,36.1,23.5,30.24,SE,132,10.0,14.0,60,0.00,,,0.00,Wunderground v.1.15,2013-03-11 18:13:00,
2013-03-11 12:18:00,36.2,23.6,30.23,SSE,148,10.0,14.0,60,0.00,,,0.00,Wunderground v.1.15,2013-03-11 18:18:00,
2013-03-11 12:23:00,36.5,24.3,30.23,SE,137,8.0,10.0,61,0.00,,,0.00,Wunderground v.1.15,2013-03-11 18:23:00,
2013-03-11 12:28:00,36.6,24.0,30.23,SE,138,10.0,13.0,60,0.00,,,0.00,Wunderground v.1.15,2013-03-11 18:28:00,
2013-03-11 12:33:00,36.7,23.7,30.22,SSE,153,4.0,7.0,59,0.00,,,0.00,Wunderground v.1.15,2013-03-11 18:33:00,
2013-03-11 12:38:00,37.0,25.2,30.22,SE,145,3.0,13.0,62,0.00,,,0.00,Wunderground v.1.15,2013-03-11 18:38:00,
2013-03-11 12:43:00,37.3,25.1,30.22,SE,137,4.0,13.0,61,0.00,,,0.01,Wunderground v.1.15,2013-03-11 18:43:00,
2013-03-11 12:48:00,37.2,23.8,30.22,SE,138,3.0,13.0,58,0.00,,,0.01,Wunderground v.1.15,2013-03-11 18:48:00,
2013-03-11 12:53:00,37.4,24.4,30.21,SE,128,11.0,15.0,59,0.00,,,0.01,Wunderground v.1.15,2013-03-11 18:53:00,
2013-03-11 12:58:00,37.9,24.8,30.21,SSE,152,5.0,15.0,59,0.00,,,0.01,Wunderground v.1.15,2013-03-11 18:58:00,
2013-03-11 13:03:00,38.1,25.0,30.21,SE,137,11.0,14.0,59,0.00,,,0.01,Wunderground v.1.15,2013-03-11 19:03:00,
2013-03-11 13:08:00,38.6,25.9,30.21,SE,139,10.0,14.0,60,0.00,,,0.01,Wunderground v.1.15,2013-03-11 19:08:00,
2013-03-11 13:13:00,38.9,24.5,30.20,SSE,158,1.0,9.0,56,0.00,,,0.01,Wunderground v.1.15,2013-03-11 19:13:00,
2013-03-11 13:18:00,39.1,25.6,30.20,SSE,152,6.0,13.0,58,0.00,,,0.01,Wunderground v.1.15,2013-03-11 19:18:00,
2013-03-11 13:23:00,39.7,26.5,30.20,SE,136,5.0,13.0,59,0.00,,,0.01,Wunderground v.1.15,2013-03-11 19:23:00,
2013-03-11 13:28:00,39.6,24.3,30.20,SSE,147,2.0,13.0,54,0.00,,,0.01,Wunderground v.1.15,2013-03-11 19:28:00,
2013-03-11 13:34:00,40.1,26.1,30.19,SE,140,3.0,9.0,57,0.00,,,0.01,Wunderground v.1.15,2013-03-11 19:34:00,
2013-03-11 13:39:00,40.2,24.9,30.19,SSE,155,0.0,12.0,54,0.00,,,0.01,Wunderground v.1.15,2013-03-11 19:39:00,
2013-03-11 13:44:00,40.2,25.7,30.18,SE,144,8.0,11.0,56,0.00,,,0.01,Wunderground v.1.15,2013-03-11 19:44:00,
2013-03-11 13:49:00,41.2,25.3,30.18,SE,140,7.0,11.0,53,0.00,,,0.01,Wunderground v.1.15,2013-03-11 19:49:00,
2013-03-11 13:54:00,41.4,25.1,30.18,SSE,148,8.0,12.0,52,0.00,,,0.01,Wunderground v.1.15,2013-03-11 19:54:00,
2013-03-11 13:59:00,41.7,25.8,30.17,SE,146,8.0,13.0,53,0.00,,,0.02,Wunderground v.1.15,2013-03-11 19:59:00,
2013-03-11 14:04:00,41.8,24.0,30.16,SE,142,3.0,10.0,49,0.00,,,0.02,Wunderground v.1.15,2013-03-11 20:04:00,
2013-03-11 14:09:00,41.8,25.4,30.16,SE,128,4.0,12.0,52,0.00,,,0.02,Wunderground v.1.15,2013-03-11 20:09:00,
2013-03-11 14:14:00,42.4,25.5,30.15,SE,138,10.0,14.0,51,0.00,,,0.02,Wunderground v.1.15,2013-03-11 20:14:00,
2013-03-11 14:19:00,42.6,25.2,30.14,SE,138,13.0,14.0,50,0.00,,,0.02,Wunderground v.1.15,2013-03-11 20:19:00,
2013-03-11 14:24:00,42.7,25.8,30.14,SE,140,7.0,11.0,51,0.00,,,0.02,Wunderground v.1.15,2013-03-11 20:24:00,
2013-03-11 14:29:00,42.9,24.0,30.14,SSE,151,5.0,14.0,47,0.00,,,0.02,Wunderground v.1.15,2013-03-11 20:29:00,
2013-03-11 14:34:00,43.1,24.7,30.14,SE,140,8.0,14.0,48,0.00,,,0.02,Wunderground v.1.15,2013-03-11 20:34:00,
2013-03-11 14:39:00,43.1,23.2,30.13,SE,136,10.0,14.0,45,0.00,,,0.02,Wunderground v.1.15,2013-03-11 20:39:00,
2013-03-11 14:44:00,43.2,23.3,30.14,SSE,157,4.0,11.0,45,0.00,,,0.02,Wunderground v.1.15,2013-03-11 20:44:00,
2013-03-11 14:49:00,43.8,24.3,30.13,SE,137,9.0,12.0,46,0.00,,,0.02,Wunderground v.1.15,2013-03-11 20:49:00,
2013-03-11 14:54:00,44.0,25.5,30.13,SSE,153,7.0,11.0,48,0.00,,,0.02,Wunderground v.1.15,2013-03-11 20:54:00,
2013-03-11 14:59:00,43.8,24.3,30.13,SE,146,4.0,11.0,46,0.00,,,0.02,Wunderground v.1.15,2013-03-11 20:59:00,
2013-03-11 15:04:00,44.3,24.3,30.14,SE,140,7.0,11.0,45,0.00,,,0.02,Wunderground v.1.15,2013-03-11 21:04:00,
2013-03-11 15:09:00,44.7,24.6,30.13,SE,145,2.0,12.0,45,0.00,,,0.02,Wunderground v.1.15,2013-03-11 21:09:00,
2013-03-11 15:14:00,44.2,24.7,30.13,SE,141,11.0,13.0,46,0.00,,,0.02,Wunderground v.1.15,2013-03-11 21:14:00,
2013-03-11 15:19:00,44.2,25.2,30.13,SE,139,12.0,13.0,47,0.00,,,0.02,Wunderground v.1.15,2013-03-11 21:19:00,
2013-03-11 15:24:00,44.6,24.5,30.13,SE,144,7.0,12.0,45,0.00,,,0.02,Wunderground v.1.15,2013-03-11 21:24:00,
2013-03-11 15:29:00,44.6,24.5,30.12,SE,146,2.0,12.0,45,0.00,,,0.02,Wunderground v.1.15,2013-03-11 21:29:00,
2013-03-11 15:34:00,44.9,24.3,30.11,SE,140,10.0,12.0,44,0.00,,,0.02,Wunderground v.1.15,2013-03-11 21:34:00,
2013-03-11 15:39:00,44.8,26.8,30.11,SE,144,8.0,13.0,49,0.00,,,0.02,Wunderground v.1.15,2013-03-11 21:39:00,
2013-03-11 15:44:00,45.0,24.4,30.11,SSE,150,6.0,11.0,44,0.00,,,0.02,Wunderground v.1.15,2013-03-11 21:44:00,
2013-03-11 15:49:00,45.5,25.4,30.11,SE,146,5.0,11.0,45,0.00,,,0.02,Wunderground v.1.15,2013-03-11 21:49:00,
2013-03-11 15:54:00,45.3,25.2,30.11,SE,142,5.0,12.0,45,0.00,,,0.02,Wunderground v.1.15,2013-03-11 21:54:00,
2013-03-11 15:59:00,45.4,26.3,30.10,SE,142,8.0,13.0,47,0.00,,,0.02,Wunderground v.1.15,2013-03-11 21:59:00,
2013-03-11 16:04:00,45.2,25.6,30.10,SE,129,8.0,11.0,46,0.00,,,0.02,Wunderground v.1.15,2013-03-11 22:04:00,
2013-03-11 16:09:00,45.0,25.4,30.10,SE,140,4.0,11.0,46,0.00,,,0.02,Wunderground v.1.15,2013-03-11 22:09:00,
2013-03-11 16:14:00,44.8,25.8,30.10,SSE,149,12.0,13.0,47,0.00,,,0.02,Wunderground v.1.15,2013-03-11 22:14:00,
2013-03-11 16:19:00,44.1,26.1,30.10,SE,145,6.0,14.0,49,0.00,,,0.02,Wunderground v.1.15,2013-03-11 22:19:00,
2013-03-11 16:24:00,43.7,26.3,30.10,SE,131,10.0,12.0,50,0.00,,,0.02,Wunderground v.1.15,2013-03-11 22:24:00,
2013-03-11 16:29:00,43.3,27.8,30.10,SSE,148,8.0,12.0,54,0.00,,,0.02,Wunderground v.1.15,2013-03-11 22:29:00,
2013-03-11 16:34:00,43.4,26.9,30.09,SE,142,5.0,7.0,52,0.00,,,0.02,Wunderground v.1.15,2013-03-11 22:34:00,
2013-03-11 16:39:00,43.3,26.8,30.09,SE,140,6.0,10.0,52,0.00,,,0.02,Wunderground v.1.15,2013-03-11 22:39:00,
2013-03-11 16:44:00,43.5,26.6,30.10,SE,143,2.0,8.0,51,0.00,,,0.02,Wunderground v.1.15,2013-03-11 22:44:00,
2013-03-11 16:49:00,43.6,28.0,30.09,SE,142,1.0,8.0,54,0.00,,,0.02,Wunderground v.1.15,2013-03-11 22:49:00,
2013-03-11 16:54:00,43.6,26.6,30.10,SE,145,3.0,8.0,51,0.00,,,0.02,Wunderground v.1.15,2013-03-11 22:54:00,
2013-03-11 16:59:00,43.6,28.0,30.10,SSE,150,0.0,8.0,54,0.00,,,0.02,Wunderground v.1.15,2013-03-11 22:59:00,
2013-03-11 17:04:00,43.3,26.8,30.10,East,100,2.0,6.0,52,0.00,,,0.02,Wunderground v.1.15,2013-03-11 23:04:00,
2013-03-11 17:09:00,42.9,26.0,30.10,East,99,2.0,6.0,51,0.00,,,0.02,Wunderground v.1.15,2013-03-11 23:09:00,
2013-03-11 17:14:00,42.7,26.3,30.10,East,101,3.0,5.0,52,0.00,,,0.02,Wunderground v.1.15,2013-03-11 23:14:00,
2013-03-11 17:19:00,42.4,26.0,30.10,ESE,102,1.0,5.0,52,0.00,,,0.02,Wunderground v.1.15,2013-03-11 23:19:00,
2013-03-11 17:24:00,42.5,26.6,30.10,ENE,63,1.0,7.0,53,0.00,,,0.02,Wunderground v.1.15,2013-03-11 23:24:00,
2013-03-11 17:29:00,42.4,26.9,30.10,ESE,105,0.0,7.0,54,0.00,,,0.02,Wunderground v.1.15,2013-03-11 23:29:00,
2013-03-11 17:34:00,42.3,26.8,30.10,ESE,105,1.0,2.0,54,0.00,,,0.02,Wunderground v.1.15,2013-03-11 23:34:00,
2013-03-11 17:39:00,42.4,27.4,30.09,ESE,105,0.0,4.0,55,0.00,,,0.02,Wunderground v.1.15,2013-03-11 23:39:00,
2013-03-11 17:44:00,42.5,26.1,30.09,ESE,105,0.0,1.0,52,0.00,,,0.02,Wunderground v.1.15,2013-03-11 23:44:00,
2013-03-11 17:49:00,42.6,27.1,30.09,ESE,105,0.0,2.0,54,0.00,,,0.02,Wunderground v.1.15,2013-03-11 23:49:00,
2013-03-11 17:54:00,42.6,27.1,30.09,ESE,105,0.0,2.0,54,0.00,,,0.02,Wunderground v.1.15,2013-03-11 23:54:00,
2013-03-11 17:59:00,42.5,26.6,30.09,ESE,105,0.0,2.0,53,0.00,,,0.02,Wunderground v.1.15,2013-03-11 23:59:00,
2013-03-11 18:04:00,42.6,26.2,30.09,ESE,105,0.0,0.0,52,0.00,,,0.02,Wunderground v.1.15,2013-03-12 00:04:00,
2013-03-11 18:09:00,42.2,25.3,30.09,ESE,105,3.0,5.0,51,0.00,,,0.02,Wunderground v.1.15,2013-03-12 00:09:00,
2013-03-11 18:14:00,41.5,25.6,30.10,ESE,105,2.0,5.0,53,0.00,,,0.02,Wunderground v.1.15,2013-03-12 00:14:00,
2013-03-11 18:19:00,41.0,26.1,30.10,ESE,105,5.0,5.0,55,0.00,,,0.02,Wunderground v.1.15,2013-03-12 00:19:00,
2013-03-11 18:24:00,40.8,25.9,30.10,ESE,105,0.0,5.0,55,0.00,,,0.02,Wunderground v.1.15,2013-03-12 00:24:00,
2013-03-11 18:29:00,40.7,25.8,30.10,ESE,105,0.0,5.0,55,0.00,,,0.02,Wunderground v.1.15,2013-03-12 00:29:00,
2013-03-11 18:34:00,40.7,26.2,30.09,ESE,105,0.0,2.0,56,0.00,,,0.02,Wunderground v.1.15,2013-03-12 00:34:00,
2013-03-11 18:39:00,40.7,26.6,30.09,ESE,105,0.0,2.0,57,0.00,,,0.02,Wunderground v.1.15,2013-03-12 00:39:00,
2013-03-11 18:44:00,40.6,26.1,30.10,ESE,105,0.0,0.0,56,0.00,,,0.02,Wunderground v.1.15,2013-03-12 00:44:00,
2013-03-11 18:49:00,40.2,26.6,30.10,ESE,105,0.0,0.0,58,0.00,,,0.02,Wunderground v.1.15,2013-03-12 00:49:00,
2013-03-11 18:54:00,39.9,26.7,30.10,ESE,105,0.0,0.0,59,0.00,,,0.02,Wunderground v.1.15,2013-03-12 00:54:00,
2013-03-11 18:59:00,39.5,25.9,30.10,ESE,105,0.0,0.0,58,0.00,,,0.02,Wunderground v.1.15,2013-03-12 00:59:00,
2013-03-11 19:04:00,39.1,25.6,30.09,ESE,105,0.0,0.0,58,0.00,,,0.02,Wunderground v.1.15,2013-03-12 01:04:00,
2013-03-11 19:09:00,38.7,25.2,30.10,ESE,105,0.0,0.0,58,0.00,,,0.02,Wunderground v.1.15,2013-03-12 01:09:00,
2013-03-11 19:14:00,38.3,24.4,30.09,ESE,105,0.0,0.0,57,0.00,,,0.02,Wunderground v.1.15,2013-03-12 01:14:00,
2013-03-11 19:19:00,37.8,23.9,30.09,ESE,105,0.0,0.0,57,0.00,,,0.02,Wunderground v.1.15,2013-03-12 01:19:00,
2013-03-11 19:24:00,37.5,24.9,30.10,ESE,105,0.0,0.0,60,0.00,,,0.02,Wunderground v.1.15,2013-03-12 01:24:00,
2013-03-11 19:29:00,37.0,25.2,30.10,ESE,105,0.0,0.0,62,0.00,,,0.02,Wunderground v.1.15,2013-03-12 01:29:00,
2013-03-11 19:34:00,36.1,24.3,30.11,ESE,105,0.0,0.0,62,0.00,,,0.02,Wunderground v.1.15,2013-03-12 01:34:00,
2013-03-11 19:39:00,35.3,23.6,30.11,ESE,105,0.0,3.0,62,0.00,,,0.02,Wunderground v.1.15,2013-03-12 01:39:00,
2013-03-11 19:44:00,34.4,23.1,30.11,ESE,105,1.0,2.0,63,0.00,,,0.02,Wunderground v.1.15,2013-03-12 01:44:00,
2013-03-11 19:49:00,34.4,22.7,30.11,ESE,105,1.0,3.0,62,0.00,,,0.02,Wunderground v.1.15,2013-03-12 01:49:00,
2013-03-11 19:54:00,34.7,23.4,30.11,ESE,105,5.0,5.0,63,0.00,,,0.02,Wunderground v.1.15,2013-03-12 01:54:00,
2013-03-11 19:59:00,34.4,22.3,30.11,ESE,105,1.0,7.0,61,0.00,,,0.02,Wunderground v.1.15,2013-03-12 01:59:00,
2013-03-11 20:04:00,34.4,23.1,30.12,ESE,105,1.0,3.0,63,0.00,,,0.02,Wunderground v.1.15,2013-03-12 02:04:00,
2013-03-11 20:09:00,34.2,22.1,30.12,ESE,105,3.0,3.0,61,0.00,,,0.02,Wunderground v.1.15,2013-03-12 02:09:00,
2013-03-11 20:14:00,34.1,22.4,30.12,ESE,105,2.0,4.0,62,0.00,,,0.02,Wunderground v.1.15,2013-03-12 02:14:00,
2013-03-11 20:19:00,33.5,22.6,30.12,ESE,105,3.0,4.0,64,0.00,,,0.02,Wunderground v.1.15,2013-03-12 02:19:00,
2013-03-11 20:24:00,32.8,22.3,30.13,ESE,105,1.0,4.0,65,0.00,,,0.02,Wunderground v.1.15,2013-03-12 02:24:00,
2013-03-11 20:29:00,32.7,22.6,30.13,ESE,105,0.0,4.0,66,0.00,,,0.02,Wunderground v.1.15,2013-03-12 02:29:00,
2013-03-11 20:34:00,32.2,23.5,30.13,SW,223,7.0,8.0,70,0.00,,,0.02,Wunderground v.1.15,2013-03-12 02:34:00,
2013-03-11 20:39:00,32.7,24.3,30.14,WSW,240,4.0,11.0,71,0.00,,,0.02,Wunderground v.1.15,2013-03-12 02:39:00,
2013-03-11 20:44:00,33.9,22.6,30.14,WNW,284,3.0,6.0,63,0.00,,,0.02,Wunderground v.1.15,2013-03-12 02:44:00,
2013-03-11 20:49:00,34.3,24.1,30.14,West,280,0.0,6.0,66,0.00,,,0.02,Wunderground v.1.15,2013-03-12 02:49:00,
2013-03-11 20:54:00,33.9,23.4,30.13,NNW,347,4.0,4.0,65,0.00,,,0.02,Wunderground v.1.15,2013-03-12 02:54:00,
2013-03-11 20:59:00,33.5,22.6,30.14,North,349,2.0,4.0,64,0.00,,,0.02,Wunderground v.1.15,2013-03-12 02:59:00,
2013-03-11 21:04:00,33.3,22.1,30.13,North,349,0.0,2.0,63,0.00,,,0.02,Wunderground v.1.15,2013-03-12 03:04:00,
2013-03-11 21:09:00,33.0,23.2,30.14,North,349,0.0,2.0,67,0.00,,,0.02,Wunderground v.1.15,2013-03-12 03:09:00,
2013-03-11 21:14:00,32.2,22.1,30.14,North,349,0.0,0.0,66,0.00,,,0.02,Wunderground v.1.15,2013-03-12 03:14:00,
2013-03-11 21:19:00,31.4,21.7,30.15,NNW,348,5.0,5.0,67,0.00,,,0.02,Wunderground v.1.15,2013-03-12 03:19:00,
2013-03-11 21:24:00,30.7,22.1,30.15,NW,311,6.0,6.0,70,0.00,,,0.02,Wunderground v.1.15,2013-03-12 03:24:00,
2013-03-11 21:29:00,30.3,23.0,30.15,WNW,294,3.0,7.0,74,0.00,,,0.02,Wunderground v.1.15,2013-03-12 03:29:00,
2013-03-11 21:34:00,30.2,22.9,30.15,NNW,330,7.0,8.0,74,0.00,,,0.02,Wunderground v.1.15,2013-03-12 03:34:00,
2013-03-11 21:39:00,30.4,22.1,30.15,North,355,7.0,8.0,71,0.00,,,0.02,Wunderground v.1.15,2013-03-12 03:39:00,
2013-03-11 21:44:00,30.5,22.2,30.15,North,9,4.0,8.0,71,0.00,,,0.02,Wunderground v.1.15,2013-03-12 03:44:00,
2013-03-11 21:49:00,30.2,22.3,30.15,North,5,4.0,8.0,72,0.00,,,0.02,Wunderground v.1.15,2013-03-12 03:49:00,
2013-03-11 21:54:00,30.1,21.8,30.15,NNE,17,6.0,8.0,71,0.00,,,0.02,Wunderground v.1.15,2013-03-12 03:54:00,
2013-03-11 21:59:00,30.4,21.8,30.16,NNE,32,8.0,8.0,70,0.00,,,0.02,Wunderground v.1.15,2013-03-12 03:59:00,
2013-03-11 22:00:00,30.5,21.9,30.15,NNE,33,6.0,6.0,70,0.00,,,0.02,Wunderground v.1.15,2013-03-12 04:00:00,
2013-03-11 22:05:00,31.2,21.9,30.16,NE,35,2.0,7.0,68,0.00,,,0.02,Wunderground v.1.15,2013-03-12 04:05:00,
2013-03-11 22:10:00,31.4,22.4,30.16,NNW,331,5.0,6.0,69,0.00,,,0.02,Wunderground v.1.15,2013-03-12 04:10:00,
2013-03-11 22:15:00,31.6,21.9,30.16,NNW,342,5.0,7.0,67,0.00,,,0.02,Wunderground v.1.15,2013-03-12 04:15:00,
2013-03-11 22:20:00,31.4,21.3,30.16,North,355,4.0,6.0,66,0.00,,,0.02,Wunderground v.1.15,2013-03-12 04:20:00,
2013-03-11 22:25:00,31.3,21.3,30.16,NNE,20,5.0,6.0,66,0.00,,,0.02,Wunderground v.1.15,2013-03-12 04:25:00,
2013-03-11 22:30:00,31.5,21.1,30.16,North,350,7.0,10.0,65,0.00,,,0.02,Wunderground v.1.15,2013-03-12 04:30:00,
2013-03-11 22:35:00,32.2,21.0,30.15,NNE,19,7.0,10.0,63,0.00,,,0.02,Wunderground v.1.15,2013-03-12 04:35:00,
2013-03-11 22:40:00,33.2,20.8,30.16,North,11,6.0,7.0,60,0.00,,,0.02,Wunderground v.1.15,2013-03-12 04:40:00,
2013-03-11 22:45:00,33.0,22.5,30.16,West,271,3.0,9.0,65,0.00,,,0.02,Wunderground v.1.15,2013-03-12 04:45:00,
2013-03-11 22:50:00,31.9,22.5,30.16,West,259,3.0,4.0,68,0.00,,,0.02,Wunderground v.1.15,2013-03-12 04:50:00,
2013-03-11 22:55:00,31.4,22.1,30.16,West,259,2.0,5.0,68,0.00,,,0.02,Wunderground v.1.15,2013-03-12 04:55:00,
2013-03-11 23:00:00,31.7,21.6,30.17,West,259,2.0,3.0,66,0.00,,,0.02,Wunderground v.1.15,2013-03-12 05:00:00,
2013-03-11 23:05:00,32.2,21.7,30.17,SW,217,9.0,9.0,65,0.00,,,0.02,Wunderground v.1.15,2013-03-12 05:05:00,
2013-03-11 23:10:00,32.5,21.7,30.17,SSW,211,0.0,3.0,64,0.00,,,0.02,Wunderground v.1.15,2013-03-12 05:10:00,
2013-03-11 23:15:00,32.7,21.1,30.16,WSW,238,2.0,3.0,62,0.00,,,0.02,Wunderground v.1.15,2013-03-12 05:15:00,
2013-03-11 23:20:00,32.5,21.7,30.16,NW,317,5.0,7.0,64,0.00,,,0.02,Wunderground v.1.15,2013-03-12 05:20:00,
2013-03-11 23:25:00,32.9,20.1,30.16,NNW,335,4.0,8.0,59,0.00,,,0.02,Wunderground v.1.15,2013-03-12 05:25:00,
2013-03-11 23:30:00,33.3,20.1,30.16,NNW,333,2.0,5.0,58,0.00,,,0.02,Wunderground v.1.15,2013-03-12 05:30:00,
2013-03-11 23:35:00,33.2,21.2,30.16,NNW,333,0.0,5.0,61,0.00,,,0.02,Wunderground v.1.15,2013-03-12 05:35:00,
2013-03-11 23:40:00,32.8,22.0,30.16,NNW,333,0.0,2.0,64,0.00,,,0.02,Wunderground v.1.15,2013-03-12 05:40:00,
2013-03-11 23:45:00,32.4,21.2,30.16,North,355,0.0,4.0,63,0.00,,,0.02,Wunderground v.1.15,2013-03-12 05:45:00,
2013-03-11 23:50:00,31.9,21.5,30.17,North,355,0.0,1.0,65,0.00,,,0.02,Wunderground v.1.15,2013-03-12 05:50:00,
2013-03-11 23:55:00,31.4,22.1,30.16,North,355,2.0,4.0,68,0.00,,,0.02,Wunderground v.1.15,2013-03-12 05:55:00,